createdAt,value
2018-10-15T00:00:44.339Z,27.23
2018-10-15T00:03:12.271Z,23.17
2018-10-15T00:05:40.157Z,22.13
2018-10-15T00:08:07.789Z,21.80
2018-10-15T00:10:35.290Z,19.80
2018-10-15T00:13:02.864Z,22.20
2018-10-15T00:15:30.643Z,19.10
2018-10-15T00:17:58.535Z,24.27
2018-10-15T00:20:26.585Z,23.10
2018-10-15T00:22:54.879Z,22.47
2018-10-15T00:25:22.345Z,20.47
2018-10-15T00:27:49.910Z,20.33
2018-10-15T00:30:17.510Z,21.10
2018-10-15T00:32:45.727Z,24.57
2018-10-15T00:35:14.125Z,20.70
2018-10-15T00:37:42.126Z,20.33
2018-10-15T00:40:09.799Z,21.87
2018-10-15T00:42:38.136Z,22.80
2018-10-15T00:45:06.966Z,20.37
2018-10-15T00:47:34.495Z,21.93
2018-10-15T00:50:02.092Z,20.50
2018-10-15T00:52:29.574Z,17.27
2018-10-15T00:54:57.140Z,21.87
2018-10-15T00:57:24.697Z,20.57
2018-10-15T00:59:52.186Z,23.23
2018-10-15T01:02:19.791Z,22.03
2018-10-15T01:04:47.313Z,21.60
2018-10-15T01:07:14.787Z,20.90
2018-10-15T01:09:42.291Z,23.13
2018-10-15T01:12:09.773Z,18.93
2018-10-15T01:14:37.287Z,26.50
2018-10-15T01:17:05.020Z,22.60
2018-10-15T01:19:32.581Z,21.00
2018-10-15T01:22:00.127Z,21.50
2018-10-15T01:24:27.652Z,20.80
2018-10-15T01:26:55.132Z,21.50
2018-10-15T01:29:22.723Z,18.30
2018-10-15T01:31:50.211Z,19.07
2018-10-15T01:34:17.741Z,22.23
2018-10-15T01:36:45.287Z,20.33
2018-10-15T01:39:14.103Z,20.40
2018-10-15T01:41:42.204Z,27.27
2018-10-15T01:44:09.840Z,24.03
2018-10-15T01:46:37.332Z,21.33
2018-10-15T01:49:05.004Z,23.63
2018-10-15T01:51:32.477Z,20.50
2018-10-15T01:54:00.079Z,25.70
2018-10-15T01:56:27.654Z,23.80
2018-10-15T01:58:55.275Z,27.97
2018-10-15T02:01:22.820Z,23.87
2018-10-15T02:03:50.345Z,22.23
2018-10-15T02:06:17.923Z,23.10
2018-10-15T02:08:45.465Z,22.03
2018-10-15T02:11:12.957Z,19.80
2018-10-15T02:13:40.432Z,24.53
2018-10-15T02:16:08.078Z,20.30
2018-10-15T02:18:36.661Z,21.27
2018-10-15T02:21:04.270Z,22.30
2018-10-15T02:23:31.730Z,18.60
2018-10-15T02:25:59.234Z,21.90
2018-10-15T02:28:26.803Z,22.17
2018-10-15T02:30:54.933Z,23.27
2018-10-15T02:33:22.521Z,23.43
2018-10-15T02:35:50.018Z,21.13
2018-10-15T02:38:17.533Z,19.63
2018-10-15T02:40:45.066Z,18.07
2018-10-15T02:45:51.681Z,20.97
2018-10-15T02:48:19.154Z,24.00
2018-10-15T02:50:46.671Z,23.43
2018-10-15T02:53:14.149Z,25.00
2018-10-15T02:55:41.675Z,19.40
2018-10-15T02:58:09.326Z,18.63
2018-10-15T03:00:36.870Z,18.70
2018-10-15T03:03:04.687Z,19.40
2018-10-15T03:05:32.236Z,23.87
2018-10-15T03:07:59.731Z,23.40
2018-10-15T03:10:27.291Z,24.47
2018-10-15T03:12:54.760Z,22.20
2018-10-15T03:15:22.285Z,21.17
2018-10-15T03:17:49.807Z,23.57
2018-10-15T03:20:17.490Z,22.60
2018-10-15T03:22:44.894Z,18.67
2018-10-15T03:25:12.372Z,21.57
2018-10-15T03:27:40.129Z,24.87
2018-10-15T03:30:08.838Z,24.20
2018-10-15T03:32:36.355Z,19.40
2018-10-15T03:35:04.537Z,21.50
2018-10-15T03:37:32.080Z,21.30
2018-10-15T03:39:59.556Z,22.43
2018-10-15T03:42:27.069Z,21.03
2018-10-15T03:44:54.650Z,23.67
2018-10-15T03:47:22.148Z,23.77
2018-10-15T03:49:49.649Z,25.43
2018-10-15T03:52:17.199Z,24.70
2018-10-15T03:54:44.691Z,33.73
2018-10-15T03:57:12.209Z,27.20
2018-10-15T03:59:39.767Z,20.47
2018-10-15T04:02:07.413Z,24.33
2018-10-15T04:04:34.989Z,23.30
2018-10-15T04:07:02.668Z,23.47
2018-10-15T04:09:30.285Z,20.47
2018-10-15T04:11:57.878Z,23.90
2018-10-15T04:14:25.513Z,23.57
2018-10-15T04:16:53.156Z,28.10
2018-10-15T04:19:20.845Z,23.90
2018-10-15T04:21:49.488Z,23.67
2018-10-15T04:24:17.056Z,21.23
2018-10-15T04:26:44.549Z,20.47
2018-10-15T04:29:12.019Z,25.83
2018-10-15T04:31:39.544Z,23.63
2018-10-15T04:34:08.046Z,23.67
2018-10-15T04:36:35.606Z,20.47
2018-10-15T04:39:04.356Z,23.23
2018-10-15T04:41:31.930Z,22.20
2018-10-15T04:43:59.454Z,24.13
2018-10-15T04:46:27.164Z,22.63
2018-10-15T04:48:54.737Z,23.50
2018-10-15T04:51:22.307Z,22.13
2018-10-15T04:53:49.870Z,21.47
2018-10-15T04:56:17.474Z,23.70
2018-10-15T04:58:44.937Z,22.23
2018-10-15T05:01:12.520Z,25.97
2018-10-15T05:03:40.094Z,23.17
2018-10-15T05:06:07.685Z,22.80
2018-10-15T05:08:35.326Z,22.73
2018-10-15T05:11:02.836Z,19.30
2018-10-15T05:13:30.367Z,21.93
2018-10-15T05:15:57.867Z,20.87
2018-10-15T05:18:25.423Z,20.20
2018-10-15T05:20:54.194Z,24.77
2018-10-15T05:23:21.709Z,22.13
2018-10-15T05:25:49.256Z,21.80
2018-10-15T05:28:16.915Z,22.90
2018-10-15T05:30:44.505Z,26.50
2018-10-15T05:33:12.010Z,23.13
2018-10-15T05:35:39.477Z,24.23
2018-10-15T05:38:07.029Z,22.87
2018-10-15T05:40:34.638Z,22.83
2018-10-15T05:43:02.336Z,23.40
2018-10-15T05:45:29.957Z,21.03
2018-10-15T05:47:57.619Z,23.23
2018-10-15T05:50:26.199Z,21.60
2018-10-15T05:52:53.821Z,21.63
2018-10-15T05:55:21.427Z,26.30
2018-10-15T05:57:49.117Z,21.30
2018-10-15T06:00:16.696Z,23.30
2018-10-15T06:02:44.411Z,21.20
2018-10-15T06:05:12.105Z,22.83
2018-10-15T06:07:39.669Z,21.77
2018-10-15T06:10:09.796Z,22.23
2018-10-15T06:12:37.315Z,24.50
2018-10-15T06:15:06.342Z,25.70
2018-10-15T06:17:33.819Z,22.00
2018-10-15T06:20:01.324Z,24.57
2018-10-15T06:22:28.862Z,26.23
2018-10-15T06:24:56.407Z,22.63
2018-10-15T06:27:23.892Z,28.50
2018-10-15T06:29:51.453Z,22.23
2018-10-15T06:32:18.889Z,20.00
2018-10-15T06:34:46.505Z,21.57
2018-10-15T06:37:14.087Z,20.50
2018-10-15T06:39:41.507Z,21.77
2018-10-15T06:42:09.104Z,27.40
2018-10-15T06:44:36.592Z,22.33
2018-10-15T06:47:04.449Z,29.63
2018-10-15T06:49:32.025Z,23.50
2018-10-15T06:51:59.538Z,28.37
2018-10-15T06:54:27.131Z,24.67
2018-10-15T06:56:54.594Z,24.70
2018-10-15T06:59:22.147Z,20.30
2018-10-15T07:01:49.692Z,21.70
2018-10-15T07:04:17.289Z,27.10
2018-10-15T07:06:44.919Z,25.70
2018-10-15T07:09:12.514Z,22.90
2018-10-15T07:11:39.917Z,21.20
2018-10-15T07:14:07.611Z,19.67
2018-10-15T07:16:35.096Z,23.40
2018-10-15T07:19:02.731Z,23.43
2018-10-15T07:21:30.246Z,19.80
2018-10-15T07:23:57.848Z,20.67
2018-10-15T07:26:25.357Z,23.77
2018-10-15T07:28:52.935Z,19.47
2018-10-15T07:31:20.491Z,22.40
2018-10-15T07:33:47.962Z,16.90
2018-10-15T07:36:15.498Z,21.77
2018-10-15T07:38:43.038Z,23.60
2018-10-15T07:41:10.718Z,20.23
2018-10-15T07:43:38.231Z,20.13
2018-10-15T07:46:06.097Z,17.40
2018-10-15T07:48:33.626Z,23.53
2018-10-15T07:51:01.152Z,18.40
2018-10-15T07:53:28.722Z,18.97
2018-10-15T07:55:56.202Z,17.40
2018-10-15T07:58:23.785Z,16.63
2018-10-15T08:00:51.269Z,18.60
2018-10-15T08:03:18.803Z,19.20
2018-10-15T08:05:46.406Z,17.37
2018-10-15T08:08:14.162Z,16.77
2018-10-15T08:10:41.642Z,19.00
2018-10-15T08:13:09.454Z,24.60
2018-10-15T08:15:37.120Z,19.37
2018-10-15T08:18:04.806Z,19.13
2018-10-15T08:20:32.405Z,23.13
2018-10-15T08:22:59.841Z,22.63
2018-10-15T08:25:27.493Z,15.40
2018-10-15T08:27:55.199Z,16.97
2018-10-15T08:30:22.691Z,16.90
2018-10-15T08:32:50.127Z,18.23
2018-10-15T08:35:17.678Z,23.07
2018-10-15T08:37:45.174Z,20.63
2018-10-15T08:40:14.779Z,17.57
2018-10-15T08:42:43.172Z,20.80
2018-10-15T08:45:10.838Z,14.07
2018-10-15T08:47:38.699Z,17.23
2018-10-15T08:50:07.844Z,19.40
2018-10-15T08:52:35.462Z,15.87
2018-10-15T08:55:03.295Z,18.40
2018-10-15T08:57:30.868Z,19.37
2018-10-15T08:59:58.421Z,17.17
2018-10-15T09:02:25.901Z,17.30
2018-10-15T09:04:53.335Z,14.03
2018-10-15T09:07:21.194Z,20.03
2018-10-15T09:09:48.738Z,17.50
2018-10-15T09:12:16.265Z,17.87
2018-10-15T09:14:43.896Z,17.00
2018-10-15T09:17:11.387Z,14.27
2018-10-15T09:19:39.118Z,17.23
2018-10-15T09:22:06.697Z,13.90
2018-10-15T09:24:34.155Z,17.80
2018-10-15T09:27:01.636Z,14.40
2018-10-15T09:29:29.350Z,14.13
2018-10-15T09:31:56.819Z,15.83
2018-10-15T09:34:24.574Z,18.03
2018-10-15T09:36:52.127Z,17.90
2018-10-15T09:39:19.715Z,13.90
2018-10-15T09:41:47.201Z,12.40
2018-10-15T09:44:14.722Z,14.93
2018-10-15T09:46:42.252Z,11.70
2018-10-15T09:49:09.742Z,14.23
2018-10-15T09:51:37.245Z,11.40
2018-10-15T09:54:04.840Z,11.57
2018-10-15T09:56:32.809Z,18.27
2018-10-15T09:59:00.549Z,14.40
2018-10-15T10:01:30.040Z,14.67
2018-10-15T10:03:57.567Z,12.60
2018-10-15T10:06:25.204Z,12.23
2018-10-15T10:08:52.703Z,13.20
2018-10-15T10:11:20.434Z,13.03
2018-10-15T10:13:48.142Z,11.93
2018-10-15T10:16:15.673Z,14.40
2018-10-15T10:18:43.316Z,12.17
2018-10-15T10:21:10.799Z,13.50
2018-10-15T10:23:38.332Z,12.07
2018-10-15T10:26:06.107Z,20.13
2018-10-15T10:28:33.645Z,14.13
2018-10-15T10:31:01.202Z,12.43
2018-10-15T10:33:28.751Z,12.20
2018-10-15T10:36:05.828Z,11.57
2018-10-15T10:38:41.171Z,9.83
2018-10-15T10:41:09.042Z,10.07
2018-10-15T10:43:36.576Z,8.27
2018-10-15T10:46:04.615Z,12.50
2018-10-15T10:48:32.102Z,11.50
2018-10-15T10:50:59.711Z,24.30
2018-10-15T10:53:27.253Z,14.50
2018-10-15T10:55:54.733Z,9.13
2018-10-15T10:58:22.408Z,14.63
2018-10-15T11:00:50.078Z,10.97
2018-10-15T11:03:17.599Z,9.93
2018-10-15T11:05:45.191Z,8.10
2018-10-15T11:08:12.881Z,10.50
2018-10-15T11:10:40.420Z,6.90
2018-10-15T11:13:08.154Z,7.93
2018-10-15T11:15:35.821Z,9.77
2018-10-15T11:18:03.313Z,10.50
2018-10-15T11:20:31.025Z,8.90
2018-10-15T11:22:58.560Z,11.17
2018-10-15T11:25:26.226Z,11.70
2018-10-15T11:27:53.764Z,9.93
2018-10-15T11:30:21.347Z,11.00
2018-10-15T11:32:49.917Z,7.40
2018-10-15T11:35:17.421Z,6.30
2018-10-15T11:37:44.954Z,11.67
2018-10-15T11:40:12.547Z,10.30
2018-10-15T11:42:41.077Z,8.77
2018-10-15T11:45:08.770Z,9.87
2018-10-15T11:47:37.505Z,11.30
2018-10-15T11:50:05.638Z,11.43
2018-10-15T11:52:33.134Z,7.67
2018-10-15T11:55:01.019Z,11.17
2018-10-15T11:57:28.800Z,14.07
2018-10-15T11:59:56.567Z,7.53
2018-10-15T12:02:24.174Z,9.00
2018-10-15T12:04:51.841Z,10.33
2018-10-15T12:07:19.385Z,13.10
2018-10-15T12:09:46.899Z,11.00
2018-10-15T12:12:14.434Z,8.10
2018-10-15T12:14:41.990Z,10.10
2018-10-15T12:17:09.709Z,8.07
2018-10-15T12:19:37.235Z,7.50
2018-10-15T12:22:04.749Z,14.47
2018-10-15T12:24:32.412Z,12.30
2018-10-15T12:26:59.940Z,8.73
2018-10-15T12:29:27.454Z,8.53
2018-10-15T12:31:54.997Z,6.10
2018-10-15T12:34:22.727Z,10.43
2018-10-15T12:36:50.295Z,19.93
2018-10-15T12:39:17.788Z,6.23
2018-10-15T12:41:45.291Z,8.20
2018-10-15T12:44:12.999Z,9.13
2018-10-15T12:46:40.573Z,6.70
2018-10-15T12:49:08.118Z,7.70
2018-10-15T12:51:35.678Z,5.53
2018-10-15T12:54:03.256Z,9.03
2018-10-15T12:56:30.948Z,6.23
2018-10-15T12:58:58.491Z,8.47
2018-10-15T13:01:26.062Z,5.60
2018-10-15T13:03:53.558Z,11.00
2018-10-15T13:06:21.075Z,8.07
2018-10-15T13:08:49.480Z,7.07
2018-10-15T13:11:17.222Z,6.60
2018-10-15T13:13:44.770Z,8.20
2018-10-15T13:16:12.773Z,5.50
2018-10-15T13:18:40.259Z,8.27
2018-10-15T13:21:07.822Z,6.10
2018-10-15T13:23:35.310Z,6.53
2018-10-15T13:26:03.019Z,10.87
2018-10-15T13:28:30.510Z,6.87
2018-10-15T13:30:58.157Z,5.50
2018-10-15T13:33:25.658Z,5.40
2018-10-15T13:35:53.201Z,5.27
2018-10-15T13:38:20.722Z,8.73
2018-10-15T13:40:48.235Z,5.00
2018-10-15T13:43:17.316Z,6.80
2018-10-15T13:45:44.815Z,8.33
2018-10-15T13:48:12.382Z,6.80
2018-10-15T13:50:39.991Z,8.93
2018-10-15T13:53:07.511Z,5.60
2018-10-15T13:55:35.020Z,5.07
2018-10-15T13:58:02.740Z,5.57
2018-10-15T14:00:33.850Z,7.67
2018-10-15T14:03:01.667Z,10.83
2018-10-15T14:05:29.216Z,6.03
2018-10-15T14:07:56.770Z,6.70
2018-10-15T14:10:24.584Z,6.10
2018-10-15T14:12:52.080Z,6.27
2018-10-15T14:15:19.610Z,6.67
2018-10-15T14:17:47.142Z,6.03
2018-10-15T14:20:14.895Z,16.83
2018-10-15T14:22:43.538Z,4.97
2018-10-15T14:25:11.951Z,5.60
2018-10-15T14:27:39.728Z,4.93
2018-10-15T14:30:09.198Z,7.43
2018-10-15T14:32:36.820Z,5.80
2018-10-15T14:35:04.466Z,6.67
2018-10-15T14:37:31.950Z,5.70
2018-10-15T14:39:59.531Z,12.70
2018-10-15T14:42:27.136Z,5.60
2018-10-15T14:44:54.666Z,5.50
2018-10-15T14:47:22.137Z,5.13
2018-10-15T14:49:51.221Z,5.57
2018-10-15T14:52:18.886Z,5.80
2018-10-15T14:54:46.467Z,5.60
2018-10-15T14:57:14.048Z,5.20
2018-10-15T14:59:41.664Z,8.40
2018-10-15T15:02:09.561Z,9.50
2018-10-15T15:04:37.207Z,5.27
2018-10-15T15:07:04.929Z,5.93
2018-10-15T15:09:43.901Z,5.83
2018-10-15T15:12:22.928Z,5.27
2018-10-15T15:14:50.540Z,5.37
2018-10-15T15:17:18.057Z,8.10
2018-10-15T15:19:45.574Z,5.23
2018-10-15T15:22:13.325Z,8.13
2018-10-15T15:24:41.044Z,7.07
2018-10-15T15:27:09.733Z,5.83
2018-10-15T15:29:37.337Z,6.90
2018-10-15T15:32:05.107Z,5.83
2018-10-15T15:34:32.600Z,5.80
2018-10-15T15:37:00.220Z,5.07
2018-10-15T15:39:27.772Z,6.80
2018-10-15T15:41:55.237Z,9.40
2018-10-15T15:44:23.022Z,5.77
2018-10-15T15:46:50.494Z,10.50
2018-10-15T15:49:18.088Z,11.90
2018-10-15T15:51:45.611Z,10.30
2018-10-15T15:54:13.176Z,9.30
2018-10-15T15:56:40.722Z,7.17
2018-10-15T15:59:08.254Z,9.57
2018-10-15T16:01:35.943Z,10.27
2018-10-15T16:04:03.574Z,10.50
2018-10-15T16:06:31.243Z,9.47
2018-10-15T16:08:59.351Z,9.90
2018-10-15T16:11:26.887Z,9.93
2018-10-15T16:13:54.422Z,7.17
2018-10-15T16:16:21.946Z,10.00
2018-10-15T16:18:49.519Z,7.07
2018-10-15T16:21:17.142Z,7.50
2018-10-15T16:23:44.783Z,8.77
2018-10-15T16:26:12.380Z,9.73
2018-10-15T16:28:39.895Z,10.87
2018-10-15T16:31:07.601Z,10.40
2018-10-15T16:33:35.247Z,10.20
2018-10-15T16:36:02.874Z,14.53
2018-10-15T16:38:30.648Z,12.50
2018-10-15T16:41:00.282Z,9.37
2018-10-15T16:43:27.911Z,15.60
2018-10-15T16:45:55.611Z,10.43
2018-10-15T16:48:24.347Z,8.60
2018-10-15T16:50:52.095Z,9.00
2018-10-15T16:53:19.596Z,10.43
2018-10-15T16:55:47.279Z,10.57
2018-10-15T16:58:14.806Z,13.10
2018-10-15T17:00:42.308Z,9.90
2018-10-15T17:03:09.865Z,11.03
2018-10-15T17:05:37.438Z,8.93
2018-10-15T17:08:05.164Z,15.07
2018-10-15T17:10:32.759Z,13.70
2018-10-15T17:13:00.283Z,11.57
2018-10-15T17:15:27.797Z,14.57
2018-10-15T17:17:55.414Z,11.77
2018-10-15T17:20:22.987Z,11.23
2018-10-15T17:22:50.797Z,11.57
2018-10-15T17:25:18.927Z,9.03
2018-10-15T17:27:46.522Z,11.27
2018-10-15T17:30:14.414Z,15.67
2018-10-15T17:32:45.650Z,9.10
2018-10-15T17:35:13.448Z,11.33
2018-10-15T17:37:41.432Z,16.13
2018-10-15T17:40:10.960Z,18.00
2018-10-15T17:42:40.062Z,13.30
2018-10-15T17:45:13.336Z,13.90
2018-10-15T17:47:43.606Z,17.30
2018-10-15T17:50:11.490Z,13.10
2018-10-15T17:52:40.326Z,14.73
2018-10-15T17:55:10.856Z,10.27
2018-10-15T17:57:39.578Z,19.13
2018-10-15T18:00:10.212Z,21.00
2018-10-15T18:02:38.002Z,30.63
2018-10-15T18:05:05.905Z,27.20
2018-10-15T18:07:33.662Z,21.70
2018-10-15T18:10:01.367Z,24.33
2018-10-15T18:12:29.098Z,29.60
2018-10-15T18:14:57.020Z,21.33
2018-10-15T18:17:25.479Z,24.73
2018-10-15T18:19:53.267Z,15.13
2018-10-15T18:22:21.276Z,19.97
2018-10-15T18:24:49.090Z,19.13
2018-10-15T18:27:16.587Z,15.53
2018-10-15T18:29:44.220Z,22.13
2018-10-15T18:32:11.837Z,17.80
2018-10-15T18:34:39.466Z,17.10
2018-10-15T18:37:06.970Z,18.03
2018-10-15T18:39:34.590Z,17.10
2018-10-15T18:42:02.384Z,13.43
2018-10-15T18:44:29.947Z,16.13
2018-10-15T18:46:57.555Z,15.57
2018-10-15T18:49:25.097Z,16.00
2018-10-15T18:51:52.727Z,16.07
2018-10-15T18:54:20.377Z,25.20
2018-10-15T18:56:47.887Z,18.30
2018-10-15T18:59:15.448Z,15.67
2018-10-15T19:01:42.998Z,16.70
2018-10-15T19:04:10.703Z,18.40
2018-10-15T19:06:38.432Z,14.07
2018-10-15T19:09:07.317Z,16.00
2018-10-15T19:11:34.889Z,14.57
2018-10-15T19:14:02.596Z,18.43
2018-10-15T19:16:30.113Z,19.47
2018-10-15T19:18:57.652Z,14.87
2018-10-15T19:21:25.162Z,14.00
2018-10-15T19:23:52.759Z,13.03
2018-10-15T19:26:20.428Z,16.37
2018-10-15T19:28:47.985Z,17.23
2018-10-15T19:31:15.509Z,13.27
2018-10-15T19:33:43.151Z,15.77
2018-10-15T19:36:10.812Z,14.03
2018-10-15T19:38:38.387Z,14.40
2018-10-15T19:41:06.058Z,17.63
2018-10-15T19:43:33.653Z,18.70
2018-10-15T19:46:01.311Z,17.03
2018-10-15T19:48:28.984Z,13.40
2018-10-15T19:50:56.490Z,12.70
2018-10-15T19:53:24.015Z,12.77
2018-10-15T19:55:51.520Z,13.10
2018-10-15T19:58:19.096Z,13.53
2018-10-15T20:00:46.689Z,17.60
2018-10-15T20:03:14.233Z,11.97
2018-10-15T20:05:41.813Z,17.90
2018-10-15T20:08:09.339Z,22.17
2018-10-15T20:10:36.982Z,28.33
2018-10-15T20:13:04.728Z,18.33
2018-10-15T20:15:32.223Z,14.40
2018-10-15T20:17:59.744Z,18.87
2018-10-15T20:20:27.211Z,14.03
2018-10-15T20:22:54.763Z,18.20
2018-10-15T20:25:22.369Z,13.93
2018-10-15T20:27:49.880Z,16.47
2018-10-15T20:30:17.420Z,14.03
2018-10-15T20:32:44.977Z,28.33
2018-10-15T20:35:12.541Z,18.03
2018-10-15T20:37:40.345Z,16.30
2018-10-15T20:40:08.643Z,14.10
2018-10-15T20:42:36.270Z,17.57
2018-10-15T20:45:03.833Z,20.57
2018-10-15T20:47:31.397Z,17.30
2018-10-15T20:49:58.912Z,19.37
2018-10-15T20:52:26.455Z,15.80
2018-10-15T20:54:53.901Z,14.63
2018-10-15T20:57:21.391Z,16.53
2018-10-15T20:59:48.981Z,16.97
2018-10-15T21:02:16.611Z,20.37
2018-10-15T21:04:44.200Z,14.90
2018-10-15T21:07:11.923Z,17.60
2018-10-15T21:09:39.504Z,14.63
2018-10-15T21:12:07.038Z,28.10
2018-10-15T21:14:35.834Z,16.20
2018-10-15T21:17:03.525Z,18.90
2018-10-15T21:19:31.100Z,17.00
2018-10-15T21:21:58.653Z,21.00
2018-10-15T21:24:26.276Z,17.10
2018-10-15T21:26:53.954Z,14.60
2018-10-15T21:29:21.676Z,15.50
2018-10-15T21:31:49.784Z,14.70
2018-10-15T21:34:17.503Z,14.63
2018-10-15T21:36:45.247Z,22.83
2018-10-15T21:39:12.880Z,18.57
2018-10-15T21:41:40.471Z,20.67
2018-10-15T21:44:08.348Z,16.17
2018-10-15T21:46:36.122Z,19.10
2018-10-15T21:49:04.975Z,18.30
2018-10-15T21:51:32.591Z,15.40
2018-10-15T21:54:00.200Z,15.87
2018-10-15T21:56:27.819Z,21.07
2018-10-15T21:58:55.320Z,21.50
2018-10-15T22:01:22.937Z,15.70
2018-10-15T22:03:50.521Z,16.80
2018-10-15T22:06:18.155Z,23.73
2018-10-15T22:08:45.744Z,19.93
2018-10-15T22:11:13.446Z,15.80
2018-10-15T22:13:41.033Z,20.60
2018-10-15T22:16:08.679Z,16.80
2018-10-15T22:18:36.238Z,27.47
2018-10-15T22:21:03.896Z,17.23
2018-10-15T22:23:31.661Z,24.20
2018-10-15T22:26:00.148Z,15.30
2018-10-15T22:28:27.776Z,19.03
2018-10-15T22:30:56.805Z,14.23
2018-10-15T22:33:24.455Z,19.57
2018-10-15T22:35:52.062Z,20.27
2018-10-15T22:38:19.649Z,15.90
2018-10-15T22:40:47.213Z,18.40
2018-10-15T22:43:14.904Z,21.80
2018-10-15T22:45:42.595Z,15.37
2018-10-15T22:48:10.167Z,18.03
2018-10-15T22:50:37.788Z,19.20
2018-10-15T22:53:05.393Z,14.37
2018-10-15T22:55:32.982Z,17.60
2018-10-15T22:58:00.532Z,24.40
2018-10-15T23:00:28.145Z,17.27
2018-10-15T23:02:55.827Z,18.40
2018-10-15T23:05:23.535Z,15.20
2018-10-15T23:07:51.290Z,19.80
2018-10-15T23:10:24.502Z,18.00
2018-10-15T23:12:52.133Z,19.53
2018-10-15T23:15:19.733Z,17.73
2018-10-15T23:17:47.526Z,18.20
2018-10-15T23:20:15.156Z,16.97
2018-10-15T23:22:42.745Z,25.60
2018-10-15T23:25:10.414Z,18.90
2018-10-15T23:27:38.728Z,19.43
2018-10-15T23:30:06.998Z,21.10
2018-10-15T23:32:34.569Z,23.23
2018-10-15T23:35:02.223Z,21.67
2018-10-15T23:37:29.820Z,20.90
2018-10-15T23:39:58.716Z,21.70
2018-10-15T23:42:27.775Z,17.50
2018-10-15T23:44:55.523Z,18.47
2018-10-15T23:47:23.579Z,19.20
2018-10-15T23:49:51.443Z,17.27
2018-10-15T23:52:19.410Z,21.07
2018-10-15T23:54:47.281Z,21.80
2018-10-15T23:57:15.098Z,20.20
2018-10-15T23:59:43.361Z,17.90
